createdAt,value
2019-01-27T00:02:47.157Z,6.70
2019-01-27T00:07:52.136Z,6.70
2019-01-27T00:13:00.401Z,6.60
2019-01-27T00:18:05.990Z,6.60
2019-01-27T00:23:12.023Z,6.60
2019-01-27T00:28:17.044Z,6.50
2019-01-27T00:33:28.154Z,6.30
2019-01-27T00:38:33.464Z,4.50
2019-01-27T00:43:38.462Z,6.10
2019-01-27T00:48:43.652Z,6.20
2019-01-27T00:53:48.409Z,6.00
2019-01-27T00:58:53.089Z,6.00
2019-01-27T01:03:58.046Z,6.10
2019-01-27T01:09:05.851Z,6.10
2019-01-27T01:14:10.818Z,6.20
2019-01-27T01:19:15.740Z,6.20
2019-01-27T01:24:20.597Z,6.10
2019-01-27T01:29:25.490Z,6.00
2019-01-27T01:34:30.421Z,5.90
2019-01-27T01:39:35.441Z,5.90
2019-01-27T01:44:40.392Z,5.90
2019-01-27T01:49:45.316Z,5.90
2019-01-27T01:54:53.980Z,5.90
2019-01-27T01:59:58.797Z,6.00
2019-01-27T02:05:03.780Z,6.00
2019-01-27T02:10:10.064Z,6.00
2019-01-27T02:16:03.137Z,6.10
2019-01-27T02:21:08.746Z,6.10
2019-01-27T02:26:13.521Z,6.20
2019-01-27T02:31:18.385Z,6.20
2019-01-27T02:36:26.554Z,6.30
2019-01-27T02:46:35.566Z,6.40
2019-01-27T02:51:40.672Z,6.30
2019-01-27T02:56:45.502Z,6.50
2019-01-27T03:01:53.394Z,6.50
2019-01-27T03:07:03.300Z,6.40
2019-01-27T03:12:08.492Z,6.60
2019-01-27T03:17:15.162Z,6.60
2019-01-27T03:22:20.087Z,6.50
2019-01-27T03:32:29.208Z,6.50
2019-01-27T03:37:34.063Z,6.40
2019-01-27T03:42:42.401Z,6.50
2019-01-27T03:47:47.270Z,6.40
2019-01-27T03:52:52.273Z,6.50
2019-01-27T03:57:57.202Z,6.50
2019-01-27T04:03:02.073Z,6.50
2019-01-27T04:08:08.422Z,6.50
2019-01-27T04:13:13.330Z,6.50
2019-01-27T04:18:18.061Z,6.50
2019-01-27T04:23:22.968Z,6.50
2019-01-27T04:28:27.925Z,6.60
2019-01-27T04:33:32.677Z,6.50
2019-01-27T04:38:37.496Z,6.50
2019-01-27T04:43:47.397Z,6.60
2019-01-27T04:48:52.302Z,6.60
2019-01-27T04:54:06.704Z,6.70
2019-01-27T04:59:11.440Z,6.70
2019-01-27T05:04:25.498Z,6.70
2019-01-27T05:09:30.599Z,6.70
2019-01-27T05:14:36.370Z,6.50
2019-01-27T05:19:44.681Z,6.60
2019-01-27T05:24:49.502Z,6.60
2019-01-27T05:29:57.592Z,6.70
2019-01-27T05:35:02.274Z,6.60
2019-01-27T05:40:08.507Z,6.60
2019-01-27T05:45:19.222Z,6.70
2019-01-27T05:50:24.002Z,6.70
2019-01-27T05:55:28.833Z,10.80
2019-01-27T06:00:42.777Z,6.70
2019-01-27T06:05:47.733Z,6.60
2019-01-27T06:10:52.557Z,6.60
2019-01-27T06:15:57.543Z,6.60
2019-01-27T06:21:02.460Z,6.60
2019-01-27T06:26:10.723Z,6.60
2019-01-27T06:31:15.431Z,6.60
2019-01-27T06:36:22.734Z,6.60
2019-01-27T06:41:27.640Z,6.70
2019-01-27T06:46:33.707Z,6.60
2019-01-27T06:51:38.418Z,6.50
2019-01-27T06:56:43.230Z,6.60
2019-01-27T07:01:52.379Z,6.60
2019-01-27T07:07:04.987Z,6.70
2019-01-27T07:12:27.157Z,6.70
2019-01-27T07:17:57.057Z,6.70
2019-01-27T07:23:21.017Z,6.70
2019-01-27T07:28:44.523Z,6.80
2019-01-27T07:34:17.419Z,6.80
2019-01-27T07:39:44.420Z,6.80
2019-01-27T07:44:57.572Z,6.80
2019-01-27T07:50:16.146Z,6.80
2019-01-27T07:55:38.340Z,6.80
2019-01-27T08:01:11.307Z,6.90
2019-01-27T08:06:35.237Z,6.90
2019-01-27T08:12:05.208Z,6.90
2019-01-27T08:17:21.086Z,7.10
2019-01-27T08:22:59.700Z,7.10
2019-01-27T08:28:30.706Z,7.20
2019-01-27T08:33:53.270Z,7.20
2019-01-27T08:39:23.330Z,7.20
2019-01-27T08:44:56.044Z,7.20
2019-01-27T08:50:03.096Z,7.20
2019-01-27T08:55:10.834Z,7.40
2019-01-27T09:00:18.603Z,7.60
2019-01-27T09:05:42.536Z,7.40
2019-01-27T09:11:06.316Z,7.50
2019-01-27T09:16:42.639Z,7.60
2019-01-27T09:21:56.170Z,7.60
2019-01-27T09:27:16.513Z,7.70
2019-01-27T09:32:37.329Z,7.70
2019-01-27T09:38:04.284Z,7.60
2019-01-27T09:43:30.987Z,7.50
2019-01-27T09:48:53.556Z,7.50
2019-01-27T09:54:10.188Z,7.50
2019-01-27T09:59:22.034Z,7.50
2019-01-27T10:04:35.082Z,7.30
2019-01-27T10:10:04.725Z,7.30
2019-01-27T10:15:28.601Z,7.30
2019-01-27T10:20:58.565Z,7.30
2019-01-27T10:26:11.627Z,7.20
2019-01-27T10:31:53.750Z,7.20
2019-01-27T10:37:12.022Z,7.20
2019-01-27T10:42:35.274Z,7.30
2019-01-27T10:47:57.700Z,7.40
2019-01-27T10:53:34.597Z,7.50
2019-01-27T10:58:50.087Z,7.40
2019-01-27T11:04:14.037Z,7.30
2019-01-27T11:09:36.545Z,7.50
2019-01-27T11:14:55.539Z,7.40
2019-01-27T11:20:06.920Z,7.30
2019-01-27T11:25:42.742Z,7.50
2019-01-27T11:31:04.914Z,7.50
2019-01-27T11:36:27.448Z,7.50
2019-01-27T11:41:50.104Z,6.90
2019-01-27T11:47:14.135Z,6.90
2019-01-27T11:52:55.970Z,7.00
2019-01-27T11:58:00.773Z,7.00
2019-01-27T12:03:05.463Z,7.20
2019-01-27T12:08:10.619Z,7.00
2019-01-27T12:13:15.560Z,7.20
2019-01-27T12:18:20.304Z,7.30
2019-01-27T12:23:25.152Z,7.60
2019-01-27T12:28:29.898Z,7.10
2019-01-27T12:33:34.604Z,7.00
2019-01-27T12:38:39.941Z,7.00
2019-01-27T12:43:45.094Z,6.90
2019-01-27T12:48:49.947Z,6.90
2019-01-27T12:53:56.197Z,6.90
2019-01-27T12:59:00.888Z,6.80
2019-01-27T13:04:06.895Z,7.00
2019-01-27T13:09:11.729Z,7.20
2019-01-27T13:14:18.763Z,7.30
2019-01-27T13:19:23.607Z,7.20
2019-01-27T13:24:28.411Z,5.90
2019-01-27T13:29:33.364Z,7.20
2019-01-27T13:34:38.133Z,7.40
2019-01-27T13:39:43.261Z,7.30
2019-01-27T13:44:48.341Z,7.50
2019-01-27T13:49:53.061Z,7.60
2019-01-27T13:54:58.257Z,7.50
2019-01-27T14:00:05.249Z,7.50
2019-01-27T14:05:10.074Z,7.80
2019-01-27T14:10:20.393Z,7.60
2019-01-27T14:15:29.689Z,7.60
2019-01-27T14:20:34.557Z,7.70
2019-01-27T14:25:45.625Z,7.50
2019-01-27T14:30:50.957Z,7.40
2019-01-27T14:35:55.838Z,7.40
2019-01-27T14:41:01.139Z,7.50
2019-01-27T14:46:06.546Z,7.40
2019-01-27T14:51:11.396Z,7.30
2019-01-27T14:56:16.166Z,7.50
2019-01-27T15:01:21.100Z,7.60
2019-01-27T15:06:25.960Z,7.70
2019-01-27T15:11:31.007Z,7.70
2019-01-27T15:16:35.826Z,7.70
2019-01-27T15:21:40.729Z,7.80
2019-01-27T15:26:45.607Z,7.80
2019-01-27T15:31:50.394Z,7.90
2019-01-27T15:36:55.594Z,7.80
2019-01-27T15:42:04.356Z,7.80
2019-01-27T15:47:10.960Z,7.70
2019-01-27T15:52:15.788Z,7.50
2019-01-27T15:57:22.694Z,7.50
2019-01-27T16:02:36.161Z,7.60
2019-01-27T16:07:41.184Z,7.70
2019-01-27T16:12:46.437Z,7.70
2019-01-27T16:17:51.669Z,7.60
2019-01-27T16:23:15.657Z,7.40
2019-01-27T16:28:20.498Z,7.70
2019-01-27T16:33:35.639Z,7.50
2019-01-27T16:38:40.678Z,7.50
2019-01-27T16:43:45.572Z,7.60
2019-01-27T16:48:54.869Z,7.40
2019-01-27T16:54:01.293Z,7.20
2019-01-27T16:59:14.322Z,7.20
2019-01-27T17:04:23.102Z,6.90
2019-01-27T17:09:28.033Z,6.80
2019-01-27T17:14:32.987Z,6.90
2019-01-27T17:19:41.517Z,6.80
2019-01-27T17:24:46.575Z,6.80
2019-01-27T17:29:51.420Z,6.80
2019-01-27T17:35:02.834Z,6.70
2019-01-27T17:40:09.929Z,6.80
2019-01-27T17:45:18.519Z,6.90
2019-01-27T17:50:25.204Z,6.80
2019-01-27T17:55:40.199Z,6.70
2019-01-27T18:01:10.865Z,6.70
2019-01-27T18:06:23.010Z,6.70
2019-01-27T18:11:32.775Z,6.70
2019-01-27T18:16:37.894Z,6.70
2019-01-27T18:21:42.976Z,6.50
2019-01-27T18:26:50.615Z,6.50
2019-01-27T18:31:56.326Z,6.60
2019-01-27T18:37:01.387Z,6.60
2019-01-27T18:42:07.122Z,6.30
2019-01-27T18:47:12.195Z,6.40
2019-01-27T18:52:38.505Z,6.30
2019-01-27T18:57:54.253Z,6.30
2019-01-27T19:03:10.546Z,6.20
2019-01-27T19:08:35.553Z,6.20
2019-01-27T19:14:10.235Z,6.20
2019-01-27T19:19:52.239Z,5.70
2019-01-27T19:25:06.128Z,5.30
2019-01-27T19:30:42.805Z,5.10
2019-01-27T19:36:05.127Z,4.90
2019-01-27T19:41:30.671Z,5.40
2019-01-27T19:47:00.801Z,5.30
2019-01-27T19:52:31.866Z,5.40
2019-01-27T19:58:02.252Z,5.10
2019-01-27T20:03:38.245Z,5.00
2019-01-27T20:14:10.297Z,4.90
2019-01-27T20:19:34.723Z,4.90
2019-01-27T20:24:54.179Z,4.80
2019-01-27T20:30:07.793Z,4.90
2019-01-27T20:35:34.035Z,5.10
2019-01-27T20:40:58.973Z,4.90
2019-01-27T20:51:30.813Z,4.50
2019-01-27T20:56:47.862Z,4.70
2019-01-27T21:02:27.270Z,4.50
2019-01-27T21:07:51.389Z,4.80
2019-01-27T21:13:08.048Z,4.70
2019-01-27T21:18:29.545Z,4.60
2019-01-27T21:23:34.573Z,4.50
2019-01-27T21:28:39.490Z,4.40
2019-01-27T21:33:44.335Z,4.40
2019-01-27T21:38:49.169Z,4.80
2019-01-27T21:43:53.977Z,4.50
2019-01-27T21:48:58.734Z,4.40
2019-01-27T21:54:03.442Z,4.20
2019-01-27T21:59:10.067Z,4.30
2019-01-27T22:04:18.325Z,4.50
2019-01-27T22:09:24.405Z,4.30
2019-01-27T22:14:29.186Z,4.40
2019-01-27T22:19:34.184Z,4.50
2019-01-27T22:24:42.446Z,4.70
2019-01-27T22:29:49.410Z,4.60
2019-01-27T22:35:00.240Z,4.80
2019-01-27T22:40:06.604Z,4.60
2019-01-27T22:45:12.649Z,4.60
2019-01-27T22:50:18.357Z,4.70
2019-01-27T22:55:23.294Z,4.70
2019-01-27T23:00:57.482Z,4.70
2019-01-27T23:06:02.335Z,4.70
2019-01-27T23:11:13.389Z,4.50
2019-01-27T23:16:18.682Z,4.60
2019-01-27T23:21:26.359Z,4.50
2019-01-27T23:26:31.319Z,4.60
2019-01-27T23:31:37.680Z,4.60
2019-01-27T23:36:42.543Z,4.50
2019-01-27T23:41:47.322Z,4.50
2019-01-27T23:46:52.093Z,4.40
2019-01-27T23:51:57.316Z,4.40
2019-01-27T23:57:02.677Z,4.40
